sensor_id;sensor_type;location;lat;lon;timestamp;P1;P2;P0
69222;PMS7003;56514;51.816;-0.026;2023-07-31T00:00:48;1.00;1.00;1.00
69222;PMS7003;56514;51.816;-0.026;2023-07-31T00:03:33;3.50;3.00;2.00
69222;PMS7003;56514;51.816;-0.026;2023-07-31T00:06:18;2.00;2.00;1.00
69222;PMS7003;56514;51.816;-0.026;2023-07-31T00:09:03;1.00;1.00;1.00
69222;PMS7003;56514;51.816;-0.026;2023-07-31T00:11:47;1.75;1.75;1.00
69222;PMS7003;56514;51.816;-0.026;2023-07-31T00:14:33;1.75;1.75;1.50
69222;PMS7003;56514;51.816;-0.026;2023-07-31T00:17:18;1.50;1.50;1.50
69222;PMS7003;56514;51.816;-0.026;2023-07-31T00:20:02;2.00;1.25;1.00
69222;PMS7003;56514;51.816;-0.026;2023-07-31T00:22:47;2.75;2.00;1.00
69222;PMS7003;56514;51.816;-0.026;2023-07-31T00:25:32;1.25;0.75;0.00
69222;PMS7003;56514;51.816;-0.026;2023-07-31T00:28:17;0.00;0.00;0.00
69222;PMS7003;56514;51.816;-0.026;2023-07-31T00:31:01;2.25;1.75;1.00
69222;PMS7003;56514;51.816;-0.026;2023-07-31T00:33:48;1.50;1.50;1.00
69222;PMS7003;56514;51.816;-0.026;2023-07-31T00:36:32;1.00;1.00;0.50
69222;PMS7003;56514;51.816;-0.026;2023-07-31T00:39:17;0.75;0.75;0.00
69222;PMS7003;56514;51.816;-0.026;2023-07-31T00:42:02;1.00;1.00;1.00
69222;PMS7003;56514;51.816;-0.026;2023-07-31T00:44:47;0.00;0.00;0.00
69222;PMS7003;56514;51.816;-0.026;2023-07-31T00:47:33;1.00;1.00;1.00
69222;PMS7003;56514;51.816;-0.026;2023-07-31T00:50:18;0.00;0.00;0.00
69222;PMS7003;56514;51.816;-0.026;2023-07-31T00:53:03;0.25;0.25;0.00
69222;PMS7003;56514;51.816;-0.026;2023-07-31T00:55:48;0.00;0.00;0.00
69222;PMS7003;56514;51.816;-0.026;2023-07-31T00:58:33;0.00;0.00;0.00
69222;PMS7003;56514;51.816;-0.026;2023-07-31T01:01:17;0.00;0.00;0.00
69222;PMS7003;56514;51.816;-0.026;2023-07-31T01:04:02;0.50;0.50;0.50
69222;PMS7003;56514;51.816;-0.026;2023-07-31T01:12:53;0.00;0.00;0.00
69222;PMS7003;56514;51.816;-0.026;2023-07-31T01:15:40;0.00;0.00;0.00
69222;PMS7003;56514;51.816;-0.026;2023-07-31T01:18:25;0.00;0.00;0.00
69222;PMS7003;56514;51.816;-0.026;2023-07-31T01:26:58;0.00;0.00;0.00
69222;PMS7003;56514;51.816;-0.026;2023-07-31T01:29:49;0.00;0.00;0.00
69222;PMS7003;56514;51.816;-0.026;2023-07-31T01:32:35;0.00;0.00;0.00
69222;PMS7003;56514;51.816;-0.026;2023-07-31T01:35:20;0.00;0.00;0.00
69222;PMS7003;56514;51.816;-0.026;2023-07-31T01:38:05;0.00;0.00;0.00
69222;PMS7003;56514;51.816;-0.026;2023-07-31T01:40:53;0.00;0.00;0.00
69222;PMS7003;56514;51.816;-0.026;2023-07-31T01:43:37;0.00;0.00;0.00
69222;PMS7003;56514;51.816;-0.026;2023-07-31T01:46:22;0.00;0.00;0.00
69222;PMS7003;56514;51.816;-0.026;2023-07-31T01:49:07;0.00;0.00;0.00
69222;PMS7003;56514;51.816;-0.026;2023-07-31T01:51:51;0.00;0.00;0.00
69222;PMS7003;56514;51.816;-0.026;2023-07-31T01:54:36;0.00;0.00;0.00
69222;PMS7003;56514;51.816;-0.026;2023-07-31T01:57:21;0.00;0.00;0.00
69222;PMS7003;56514;51.816;-0.026;2023-07-31T02:00:06;0.00;0.00;0.00
69222;PMS7003;56514;51.816;-0.026;2023-07-31T02:02:51;0.00;0.00;0.00
69222;PMS7003;56514;51.816;-0.026;2023-07-31T02:05:35;0.00;0.00;0.00
69222;PMS7003;56514;51.816;-0.026;2023-07-31T02:08:20;0.00;0.00;0.00
69222;PMS7003;56514;51.816;-0.026;2023-07-31T02:11:05;0.00;0.00;0.00
69222;PMS7003;56514;51.816;-0.026;2023-07-31T02:13:49;0.00;0.00;0.00
69222;PMS7003;56514;51.816;-0.026;2023-07-31T02:16:34;0.00;0.00;0.00
69222;PMS7003;56514;51.816;-0.026;2023-07-31T02:19:19;0.00;0.00;0.00
69222;PMS7003;56514;51.816;-0.026;2023-07-31T02:22:03;0.00;0.00;0.00
69222;PMS7003;56514;51.816;-0.026;2023-07-31T02:24:48;0.00;0.00;0.00
69222;PMS7003;56514;51.816;-0.026;2023-07-31T02:27:33;0.00;0.00;0.00
69222;PMS7003;56514;51.816;-0.026;2023-07-31T02:30:18;0.00;0.00;0.00
69222;PMS7003;56514;51.816;-0.026;2023-07-31T02:33:03;0.00;0.00;0.00
69222;PMS7003;56514;51.816;-0.026;2023-07-31T02:35:47;0.00;0.00;0.00
69222;PMS7003;56514;51.816;-0.026;2023-07-31T02:38:32;0.00;0.00;0.00
69222;PMS7003;56514;51.816;-0.026;2023-07-31T02:41:17;0.00;0.00;0.00
69222;PMS7003;56514;51.816;-0.026;2023-07-31T02:44:02;0.00;0.00;0.00
69222;PMS7003;56514;51.816;-0.026;2023-07-31T02:46:46;0.00;0.00;0.00
69222;PMS7003;56514;51.816;-0.026;2023-07-31T02:49:34;0.00;0.00;0.00
69222;PMS7003;56514;51.816;-0.026;2023-07-31T02:52:19;0.00;0.00;0.00
69222;PMS7003;56514;51.816;-0.026;2023-07-31T02:55:04;0.00;0.00;0.00
69222;PMS7003;56514;51.816;-0.026;2023-07-31T02:57:48;0.00;0.00;0.00
69222;PMS7003;56514;51.816;-0.026;2023-07-31T03:00:33;0.00;0.00;0.00
69222;PMS7003;56514;51.816;-0.026;2023-07-31T03:03:18;0.00;0.00;0.00
69222;PMS7003;56514;51.816;-0.026;2023-07-31T03:06:02;0.00;0.00;0.00
69222;PMS7003;56514;51.816;-0.026;2023-07-31T03:08:47;0.00;0.00;0.00
69222;PMS7003;56514;51.816;-0.026;2023-07-31T03:11:33;0.00;0.00;0.00
69222;PMS7003;56514;51.816;-0.026;2023-07-31T03:14:17;0.00;0.00;0.00
69222;PMS7003;56514;51.816;-0.026;2023-07-31T03:17:02;0.00;0.00;0.00
69222;PMS7003;56514;51.816;-0.026;2023-07-31T03:19:47;0.00;0.00;0.00
69222;PMS7003;56514;51.816;-0.026;2023-07-31T03:22:33;0.00;0.00;0.00
69222;PMS7003;56514;51.816;-0.026;2023-07-31T03:25:19;0.00;0.00;0.00
69222;PMS7003;56514;51.816;-0.026;2023-07-31T03:28:03;0.00;0.00;0.00
69222;PMS7003;56514;51.816;-0.026;2023-07-31T03:30:48;0.00;0.00;0.00
69222;PMS7003;56514;51.816;-0.026;2023-07-31T03:33:33;0.00;0.00;0.00
69222;PMS7003;56514;51.816;-0.026;2023-07-31T03:36:17;0.00;0.00;0.00
69222;PMS7003;56514;51.816;-0.026;2023-07-31T03:39:01;0.00;0.00;0.00
69222;PMS7003;56514;51.816;-0.026;2023-07-31T03:41:46;0.00;0.00;0.00
69222;PMS7003;56514;51.816;-0.026;2023-07-31T03:44:32;0.00;0.00;0.00
69222;PMS7003;56514;51.816;-0.026;2023-07-31T03:47:17;0.00;0.00;0.00
69222;PMS7003;56514;51.816;-0.026;2023-07-31T03:50:02;0.00;0.00;0.00
69222;PMS7003;56514;51.816;-0.026;2023-07-31T03:52:46;0.00;0.00;0.00
69222;PMS7003;56514;51.816;-0.026;2023-07-31T03:55:33;0.00;0.00;0.00
69222;PMS7003;56514;51.816;-0.026;2023-07-31T03:58:18;0.00;0.00;0.00
69222;PMS7003;56514;51.816;-0.026;2023-07-31T04:01:03;0.00;0.00;0.00
69222;PMS7003;56514;51.816;-0.026;2023-07-31T04:03:47;0.00;0.00;0.00
69222;PMS7003;56514;51.816;-0.026;2023-07-31T04:06:33;0.00;0.00;0.00
69222;PMS7003;56514;51.816;-0.026;2023-07-31T04:09:18;0.00;0.00;0.00
69222;PMS7003;56514;51.816;-0.026;2023-07-31T04:12:02;0.00;0.00;0.00
69222;PMS7003;56514;51.816;-0.026;2023-07-31T04:14:47;0.00;0.00;0.00
69222;PMS7003;56514;51.816;-0.026;2023-07-31T04:17:31;0.00;0.00;0.00
69222;PMS7003;56514;51.816;-0.026;2023-07-31T04:20:16;0.00;0.00;0.00
69222;PMS7003;56514;51.816;-0.026;2023-07-31T04:23:01;0.00;0.00;0.00
69222;PMS7003;56514;51.816;-0.026;2023-07-31T04:25:45;0.00;0.00;0.00
69222;PMS7003;56514;51.816;-0.026;2023-07-31T04:28:29;0.00;0.00;0.00
69222;PMS7003;56514;51.816;-0.026;2023-07-31T04:31:16;0.00;0.00;0.00
69222;PMS7003;56514;51.816;-0.026;2023-07-31T04:34:00;0.00;0.00;0.00
69222;PMS7003;56514;51.816;-0.026;2023-07-31T04:36:45;0.00;0.00;0.00
69222;PMS7003;56514;51.816;-0.026;2023-07-31T04:39:29;1.00;0.00;0.00
69222;PMS7003;56514;51.816;-0.026;2023-07-31T04:42:14;0.00;0.00;0.00
69222;PMS7003;56514;51.816;-0.026;2023-07-31T04:44:58;0.00;0.00;0.00
69222;PMS7003;56514;51.816;-0.026;2023-07-31T04:47:43;0.00;0.00;0.00
69222;PMS7003;56514;51.816;-0.026;2023-07-31T04:50:28;0.00;0.00;0.00
69222;PMS7003;56514;51.816;-0.026;2023-07-31T04:53:14;0.00;0.00;0.00
69222;PMS7003;56514;51.816;-0.026;2023-07-31T04:55:58;0.00;0.00;0.00
69222;PMS7003;56514;51.816;-0.026;2023-07-31T04:58:43;0.00;0.00;0.00
69222;PMS7003;56514;51.816;-0.026;2023-07-31T05:01:28;0.00;0.00;0.00
69222;PMS7003;56514;51.816;-0.026;2023-07-31T05:04:15;0.00;0.00;0.00
69222;PMS7003;56514;51.816;-0.026;2023-07-31T05:07:00;0.00;0.00;0.00
69222;PMS7003;56514;51.816;-0.026;2023-07-31T05:09:45;0.00;0.00;0.00
69222;PMS7003;56514;51.816;-0.026;2023-07-31T05:12:30;0.00;0.00;0.00
69222;PMS7003;56514;51.816;-0.026;2023-07-31T05:15:14;0.00;0.00;0.00
69222;PMS7003;56514;51.816;-0.026;2023-07-31T05:17:59;0.00;0.00;0.00
69222;PMS7003;56514;51.816;-0.026;2023-07-31T05:20:43;0.00;0.00;0.00
69222;PMS7003;56514;51.816;-0.026;2023-07-31T05:23:28;0.00;0.00;0.00
69222;PMS7003;56514;51.816;-0.026;2023-07-31T05:26:13;0.00;0.00;0.00
69222;PMS7003;56514;51.816;-0.026;2023-07-31T05:28:58;0.00;0.00;0.00
69222;PMS7003;56514;51.816;-0.026;2023-07-31T05:31:43;0.00;0.00;0.00
69222;PMS7003;56514;51.816;-0.026;2023-07-31T05:34:27;0.00;0.00;0.00
69222;PMS7003;56514;51.816;-0.026;2023-07-31T05:37:12;0.00;0.00;0.00
69222;PMS7003;56514;51.816;-0.026;2023-07-31T05:39:56;0.00;0.00;0.00
69222;PMS7003;56514;51.816;-0.026;2023-07-31T05:42:41;0.00;0.00;0.00
69222;PMS7003;56514;51.816;-0.026;2023-07-31T05:45:25;0.00;0.00;0.00
69222;PMS7003;56514;51.816;-0.026;2023-07-31T05:48:10;0.00;0.00;0.00
69222;PMS7003;56514;51.816;-0.026;2023-07-31T05:50:54;0.00;0.00;0.00
69222;PMS7003;56514;51.816;-0.026;2023-07-31T05:53:39;0.00;0.00;0.00
69222;PMS7003;56514;51.816;-0.026;2023-07-31T05:56:25;0.00;0.00;0.00
69222;PMS7003;56514;51.816;-0.026;2023-07-31T05:59:12;0.00;0.00;0.00
69222;PMS7003;56514;51.816;-0.026;2023-07-31T06:01:56;0.00;0.00;0.00
69222;PMS7003;56514;51.816;-0.026;2023-07-31T06:04:41;0.00;0.00;0.00
69222;PMS7003;56514;51.816;-0.026;2023-07-31T06:07:26;0.00;0.00;0.00
69222;PMS7003;56514;51.816;-0.026;2023-07-31T06:10:10;0.00;0.00;0.00
69222;PMS7003;56514;51.816;-0.026;2023-07-31T06:12:55;0.00;0.00;0.00
69222;PMS7003;56514;51.816;-0.026;2023-07-31T06:15:39;0.00;0.00;0.00
69222;PMS7003;56514;51.816;-0.026;2023-07-31T06:18:24;0.00;0.00;0.00
69222;PMS7003;56514;51.816;-0.026;2023-07-31T06:21:09;0.00;0.00;0.00
69222;PMS7003;56514;51.816;-0.026;2023-07-31T06:23:54;0.00;0.00;0.00
69222;PMS7003;56514;51.816;-0.026;2023-07-31T06:26:38;0.00;0.00;0.00
69222;PMS7003;56514;51.816;-0.026;2023-07-31T06:29:23;0.00;0.00;0.00
69222;PMS7003;56514;51.816;-0.026;2023-07-31T06:32:08;0.00;0.00;0.00
69222;PMS7003;56514;51.816;-0.026;2023-07-31T06:34:52;0.00;0.00;0.00
69222;PMS7003;56514;51.816;-0.026;2023-07-31T06:37:38;0.00;0.00;0.00
69222;PMS7003;56514;51.816;-0.026;2023-07-31T06:40:24;0.00;0.00;0.00
69222;PMS7003;56514;51.816;-0.026;2023-07-31T06:43:08;0.00;0.00;0.00
69222;PMS7003;56514;51.816;-0.026;2023-07-31T06:45:53;0.00;0.00;0.00
69222;PMS7003;56514;51.816;-0.026;2023-07-31T06:48:37;0.00;0.00;0.00
69222;PMS7003;56514;51.816;-0.026;2023-07-31T06:51:22;0.00;0.00;0.00
69222;PMS7003;56514;51.816;-0.026;2023-07-31T06:54:08;0.00;0.00;0.00
69222;PMS7003;56514;51.816;-0.026;2023-07-31T06:56:52;0.00;0.00;0.00
69222;PMS7003;56514;51.816;-0.026;2023-07-31T06:59:37;0.00;0.00;0.00
69222;PMS7003;56514;51.816;-0.026;2023-07-31T07:02:21;0.00;0.00;0.00
69222;PMS7003;56514;51.816;-0.026;2023-07-31T07:05:06;0.00;0.00;0.00
69222;PMS7003;56514;51.816;-0.026;2023-07-31T07:07:51;0.00;0.00;0.00
69222;PMS7003;56514;51.816;-0.026;2023-07-31T07:10:36;0.00;0.00;0.00
69222;PMS7003;56514;51.816;-0.026;2023-07-31T07:13:21;0.00;0.00;0.00
69222;PMS7003;56514;51.816;-0.026;2023-07-31T07:16:06;0.00;0.00;0.00
69222;PMS7003;56514;51.816;-0.026;2023-07-31T07:18:51;0.00;0.00;0.00
69222;PMS7003;56514;51.816;-0.026;2023-07-31T07:21:35;0.00;0.00;0.00
69222;PMS7003;56514;51.816;-0.026;2023-07-31T07:24:20;0.00;0.00;0.00
69222;PMS7003;56514;51.816;-0.026;2023-07-31T07:27:04;0.00;0.00;0.00
69222;PMS7003;56514;51.816;-0.026;2023-07-31T07:29:52;0.00;0.00;0.00
69222;PMS7003;56514;51.816;-0.026;2023-07-31T07:32:37;0.00;0.00;0.00
69222;PMS7003;56514;51.816;-0.026;2023-07-31T07:35:22;0.00;0.00;0.00
69222;PMS7003;56514;51.816;-0.026;2023-07-31T07:38:07;0.00;0.00;0.00
69222;PMS7003;56514;51.816;-0.026;2023-07-31T07:40:52;0.00;0.00;0.00
69222;PMS7003;56514;51.816;-0.026;2023-07-31T07:43:38;0.00;0.00;0.00
69222;PMS7003;56514;51.816;-0.026;2023-07-31T07:46:22;0.00;0.00;0.00
69222;PMS7003;56514;51.816;-0.026;2023-07-31T07:49:07;0.00;0.00;0.00
69222;PMS7003;56514;51.816;-0.026;2023-07-31T07:51:52;0.00;0.00;0.00
69222;PMS7003;56514;51.816;-0.026;2023-07-31T07:54:36;0.00;0.00;0.00
69222;PMS7003;56514;51.816;-0.026;2023-07-31T07:57:21;0.00;0.00;0.00
69222;PMS7003;56514;51.816;-0.026;2023-07-31T08:00:05;0.00;0.00;0.00
69222;PMS7003;56514;51.816;-0.026;2023-07-31T08:02:50;0.00;0.00;0.00
69222;PMS7003;56514;51.816;-0.026;2023-07-31T08:05:35;0.00;0.00;0.00
69222;PMS7003;56514;51.816;-0.026;2023-07-31T08:08:19;0.00;0.00;0.00
69222;PMS7003;56514;51.816;-0.026;2023-07-31T08:11:04;0.00;0.00;0.00
69222;PMS7003;56514;51.816;-0.026;2023-07-31T08:13:49;0.00;0.00;0.00
69222;PMS7003;56514;51.816;-0.026;2023-07-31T08:16:33;0.00;0.00;0.00
69222;PMS7003;56514;51.816;-0.026;2023-07-31T08:19:18;0.00;0.00;0.00
69222;PMS7003;56514;51.816;-0.026;2023-07-31T08:22:03;0.00;0.00;0.00
69222;PMS7003;56514;51.816;-0.026;2023-07-31T08:24:47;0.00;0.00;0.00
69222;PMS7003;56514;51.816;-0.026;2023-07-31T08:27:32;0.00;0.00;0.00
69222;PMS7003;56514;51.816;-0.026;2023-07-31T08:30:16;0.00;0.00;0.00
69222;PMS7003;56514;51.816;-0.026;2023-07-31T08:33:01;0.00;0.00;0.00
69222;PMS7003;56514;51.816;-0.026;2023-07-31T08:35:47;0.20;0.00;0.00
69222;PMS7003;56514;51.816;-0.026;2023-07-31T08:38:32;0.00;0.00;0.00
69222;PMS7003;56514;51.816;-0.026;2023-07-31T08:41:17;0.00;0.00;0.00
69222;PMS7003;56514;51.816;-0.026;2023-07-31T08:44:01;0.00;0.00;0.00
69222;PMS7003;56514;51.816;-0.026;2023-07-31T08:46:47;0.00;0.00;0.00
69222;PMS7003;56514;51.816;-0.026;2023-07-31T08:49:32;0.00;0.00;0.00
69222;PMS7003;56514;51.816;-0.026;2023-07-31T08:52:17;0.00;0.00;0.00
69222;PMS7003;56514;51.816;-0.026;2023-07-31T08:55:02;0.00;0.00;0.00
69222;PMS7003;56514;51.816;-0.026;2023-07-31T08:57:47;0.00;0.00;0.00
69222;PMS7003;56514;51.816;-0.026;2023-07-31T09:00:33;0.00;0.00;0.00
69222;PMS7003;56514;51.816;-0.026;2023-07-31T09:03:18;0.00;0.00;0.00
69222;PMS7003;56514;51.816;-0.026;2023-07-31T09:06:03;0.00;0.00;0.00
69222;PMS7003;56514;51.816;-0.026;2023-07-31T09:08:50;0.00;0.00;0.00
69222;PMS7003;56514;51.816;-0.026;2023-07-31T09:11:35;0.00;0.00;0.00
69222;PMS7003;56514;51.816;-0.026;2023-07-31T09:14:19;0.00;0.00;0.00
69222;PMS7003;56514;51.816;-0.026;2023-07-31T09:17:05;0.00;0.00;0.00
69222;PMS7003;56514;51.816;-0.026;2023-07-31T09:19:49;0.00;0.00;0.00
69222;PMS7003;56514;51.816;-0.026;2023-07-31T09:22:34;0.00;0.00;0.00
69222;PMS7003;56514;51.816;-0.026;2023-07-31T09:25:23;0.00;0.00;0.00
69222;PMS7003;56514;51.816;-0.026;2023-07-31T09:28:09;0.00;0.00;0.00
69222;PMS7003;56514;51.816;-0.026;2023-07-31T09:30:54;0.00;0.00;0.00
69222;PMS7003;56514;51.816;-0.026;2023-07-31T09:33:47;0.00;0.00;0.00
69222;PMS7003;56514;51.816;-0.026;2023-07-31T09:36:42;0.00;0.00;0.00
69222;PMS7003;56514;51.816;-0.026;2023-07-31T09:39:27;0.00;0.00;0.00
69222;PMS7003;56514;51.816;-0.026;2023-07-31T09:42:11;0.00;0.00;0.00
69222;PMS7003;56514;51.816;-0.026;2023-07-31T09:44:55;0.00;0.00;0.00
69222;PMS7003;56514;51.816;-0.026;2023-07-31T09:47:50;0.00;0.00;0.00
69222;PMS7003;56514;51.816;-0.026;2023-07-31T09:50:38;0.00;0.00;0.00
69222;PMS7003;56514;51.816;-0.026;2023-07-31T09:53:28;0.00;0.00;0.00
69222;PMS7003;56514;51.816;-0.026;2023-07-31T09:56:13;0.00;0.00;0.00
69222;PMS7003;56514;51.816;-0.026;2023-07-31T09:58:57;0.00;0.00;0.00
69222;PMS7003;56514;51.816;-0.026;2023-07-31T10:01:44;0.00;0.00;0.00
69222;PMS7003;56514;51.816;-0.026;2023-07-31T10:04:31;0.20;0.20;0.20
69222;PMS7003;56514;51.816;-0.026;2023-07-31T10:07:17;0.00;0.00;0.00
69222;PMS7003;56514;51.816;-0.026;2023-07-31T10:10:02;0.00;0.00;0.00
69222;PMS7003;56514;51.816;-0.026;2023-07-31T10:12:48;0.00;0.00;0.00
69222;PMS7003;56514;51.816;-0.026;2023-07-31T10:15:34;0.00;0.00;0.00
69222;PMS7003;56514;51.816;-0.026;2023-07-31T10:18:19;0.00;0.00;0.00
69222;PMS7003;56514;51.816;-0.026;2023-07-31T10:21:04;0.00;0.00;0.00
69222;PMS7003;56514;51.816;-0.026;2023-07-31T10:23:48;0.00;0.00;0.00
69222;PMS7003;56514;51.816;-0.026;2023-07-31T10:26:33;0.00;0.00;0.00
69222;PMS7003;56514;51.816;-0.026;2023-07-31T10:29:20;0.00;0.00;0.00
69222;PMS7003;56514;51.816;-0.026;2023-07-31T10:32:06;0.00;0.00;0.00
69222;PMS7003;56514;51.816;-0.026;2023-07-31T10:34:54;0.00;0.00;0.00
69222;PMS7003;56514;51.816;-0.026;2023-07-31T10:37:40;0.00;0.00;0.00
69222;PMS7003;56514;51.816;-0.026;2023-07-31T10:40:27;0.00;0.00;0.00
69222;PMS7003;56514;51.816;-0.026;2023-07-31T10:43:23;0.00;0.00;0.00
69222;PMS7003;56514;51.816;-0.026;2023-07-31T10:46:11;0.00;0.00;0.00
69222;PMS7003;56514;51.816;-0.026;2023-07-31T10:48:57;0.00;0.00;0.00
69222;PMS7003;56514;51.816;-0.026;2023-07-31T10:51:42;0.00;0.00;0.00
69222;PMS7003;56514;51.816;-0.026;2023-07-31T10:54:27;0.00;0.00;0.00
69222;PMS7003;56514;51.816;-0.026;2023-07-31T10:57:21;0.00;0.00;0.00
69222;PMS7003;56514;51.816;-0.026;2023-07-31T11:00:28;0.00;0.00;0.00
69222;PMS7003;56514;51.816;-0.026;2023-07-31T11:03:15;0.00;0.00;0.00
69222;PMS7003;56514;51.816;-0.026;2023-07-31T11:06:06;0.00;0.00;0.00
69222;PMS7003;56514;51.816;-0.026;2023-07-31T11:08:51;0.00;0.00;0.00
69222;PMS7003;56514;51.816;-0.026;2023-07-31T11:11:35;0.00;0.00;0.00
69222;PMS7003;56514;51.816;-0.026;2023-07-31T11:14:20;0.00;0.00;0.00
69222;PMS7003;56514;51.816;-0.026;2023-07-31T11:17:06;0.00;0.00;0.00
69222;PMS7003;56514;51.816;-0.026;2023-07-31T11:19:50;0.00;0.00;0.00
69222;PMS7003;56514;51.816;-0.026;2023-07-31T11:22:35;0.00;0.00;0.00
69222;PMS7003;56514;51.816;-0.026;2023-07-31T11:25:20;0.00;0.00;0.00
69222;PMS7003;56514;51.816;-0.026;2023-07-31T11:28:10;0.00;0.00;0.00
69222;PMS7003;56514;51.816;-0.026;2023-07-31T11:30:55;0.00;0.00;0.00
69222;PMS7003;56514;51.816;-0.026;2023-07-31T11:33:40;0.00;0.00;0.00
69222;PMS7003;56514;51.816;-0.026;2023-07-31T11:36:24;0.00;0.00;0.00
69222;PMS7003;56514;51.816;-0.026;2023-07-31T11:39:09;0.00;0.00;0.00
69222;PMS7003;56514;51.816;-0.026;2023-07-31T11:41:58;0.00;0.00;0.00
69222;PMS7003;56514;51.816;-0.026;2023-07-31T11:44:43;0.00;0.00;0.00
69222;PMS7003;56514;51.816;-0.026;2023-07-31T11:47:33;0.00;0.00;0.00
69222;PMS7003;56514;51.816;-0.026;2023-07-31T11:50:21;0.00;0.00;0.00
69222;PMS7003;56514;51.816;-0.026;2023-07-31T11:53:07;0.00;0.00;0.00
69222;PMS7003;56514;51.816;-0.026;2023-07-31T11:55:52;0.00;0.00;0.00
69222;PMS7003;56514;51.816;-0.026;2023-07-31T11:58:37;0.00;0.00;0.00
69222;PMS7003;56514;51.816;-0.026;2023-07-31T12:01:22;0.00;0.00;0.00
69222;PMS7003;56514;51.816;-0.026;2023-07-31T12:04:07;0.25;0.25;0.25
69222;PMS7003;56514;51.816;-0.026;2023-07-31T12:06:55;0.00;0.00;0.00
69222;PMS7003;56514;51.816;-0.026;2023-07-31T12:10:01;0.50;0.50;0.25
69222;PMS7003;56514;51.816;-0.026;2023-07-31T12:12:44;1.00;1.00;0.00
69222;PMS7003;56514;51.816;-0.026;2023-07-31T12:15:40;0.00;0.00;0.00
69222;PMS7003;56514;51.816;-0.026;2023-07-31T12:18:26;0.00;0.00;0.00
69222;PMS7003;56514;51.816;-0.026;2023-07-31T12:21:11;1.00;1.00;0.00
69222;PMS7003;56514;51.816;-0.026;2023-07-31T12:23:56;0.00;0.00;0.00
69222;PMS7003;56514;51.816;-0.026;2023-07-31T12:26:42;0.00;0.00;0.00
69222;PMS7003;56514;51.816;-0.026;2023-07-31T12:29:38;0.00;0.00;0.00
69222;PMS7003;56514;51.816;-0.026;2023-07-31T12:32:23;0.00;0.00;0.00
69222;PMS7003;56514;51.816;-0.026;2023-07-31T12:35:13;0.00;0.00;0.00
69222;PMS7003;56514;51.816;-0.026;2023-07-31T12:38:00;0.00;0.00;0.00
69222;PMS7003;56514;51.816;-0.026;2023-07-31T12:40:45;1.00;1.00;0.00
69222;PMS7003;56514;51.816;-0.026;2023-07-31T12:43:30;1.00;1.00;0.00
69222;PMS7003;56514;51.816;-0.026;2023-07-31T12:46:15;1.00;1.00;1.00
69222;PMS7003;56514;51.816;-0.026;2023-07-31T12:49:00;0.50;0.50;0.25
69222;PMS7003;56514;51.816;-0.026;2023-07-31T12:51:45;1.00;1.00;0.25
69222;PMS7003;56514;51.816;-0.026;2023-07-31T12:54:33;2.00;2.00;0.50
69222;PMS7003;56514;51.816;-0.026;2023-07-31T12:57:20;1.00;1.00;1.00
69222;PMS7003;56514;51.816;-0.026;2023-07-31T13:00:05;0.75;0.75;0.00
69222;PMS7003;56514;51.816;-0.026;2023-07-31T13:02:51;1.00;1.00;1.00
69222;PMS7003;56514;51.816;-0.026;2023-07-31T13:05:35;1.25;0.25;0.25
69222;PMS7003;56514;51.816;-0.026;2023-07-31T13:08:20;1.00;1.00;0.50
69222;PMS7003;56514;51.816;-0.026;2023-07-31T13:11:04;0.75;0.75;0.75
69222;PMS7003;56514;51.816;-0.026;2023-07-31T13:13:49;0.50;0.50;0.00
69222;PMS7003;56514;51.816;-0.026;2023-07-31T13:16:34;1.00;1.00;1.00
69222;PMS7003;56514;51.816;-0.026;2023-07-31T13:19:18;0.25;0.25;0.25
69222;PMS7003;56514;51.816;-0.026;2023-07-31T13:22:03;1.50;1.50;1.00
69222;PMS7003;56514;51.816;-0.026;2023-07-31T13:24:48;2.00;2.00;1.75
69222;PMS7003;56514;51.816;-0.026;2023-07-31T13:27:33;1.00;1.00;0.25
69222;PMS7003;56514;51.816;-0.026;2023-07-31T13:30:18;1.00;1.00;0.00
69222;PMS7003;56514;51.816;-0.026;2023-07-31T13:33:03;0.75;0.75;0.25
69222;PMS7003;56514;51.816;-0.026;2023-07-31T13:35:47;1.00;1.00;1.00
69222;PMS7003;56514;51.816;-0.026;2023-07-31T13:38:33;1.00;1.00;1.00
69222;PMS7003;56514;51.816;-0.026;2023-07-31T13:41:18;1.00;1.00;1.00
69222;PMS7003;56514;51.816;-0.026;2023-07-31T13:44:02;1.25;1.25;1.00
69222;PMS7003;56514;51.816;-0.026;2023-07-31T13:46:47;0.25;0.25;0.25
69222;PMS7003;56514;51.816;-0.026;2023-07-31T13:49:34;1.00;1.00;1.00
69222;PMS7003;56514;51.816;-0.026;2023-07-31T13:52:20;1.50;1.50;1.00
69222;PMS7003;56514;51.816;-0.026;2023-07-31T13:55:05;1.00;1.00;1.00
69222;PMS7003;56514;51.816;-0.026;2023-07-31T13:57:50;2.75;2.75;2.00
69222;PMS7003;56514;51.816;-0.026;2023-07-31T14:00:35;0.00;0.00;0.00
69222;PMS7003;56514;51.816;-0.026;2023-07-31T14:03:20;2.00;2.00;1.50
69222;PMS7003;56514;51.816;-0.026;2023-07-31T14:06:04;1.75;1.75;1.00
69222;PMS7003;56514;51.816;-0.026;2023-07-31T14:08:49;3.00;3.00;2.00
69222;PMS7003;56514;51.816;-0.026;2023-07-31T14:11:34;3.00;3.00;2.25
69222;PMS7003;56514;51.816;-0.026;2023-07-31T14:14:18;2.00;2.00;1.00
69222;PMS7003;56514;51.816;-0.026;2023-07-31T14:17:05;1.25;1.25;1.00
69222;PMS7003;56514;51.816;-0.026;2023-07-31T14:19:49;3.00;3.00;2.00
69222;PMS7003;56514;51.816;-0.026;2023-07-31T14:22:34;2.50;1.75;1.00
69222;PMS7003;56514;51.816;-0.026;2023-07-31T14:25:19;2.00;2.00;1.00
69222;PMS7003;56514;51.816;-0.026;2023-07-31T14:28:04;3.00;3.00;2.00
69222;PMS7003;56514;51.816;-0.026;2023-07-31T14:30:49;2.00;2.00;2.00
69222;PMS7003;56514;51.816;-0.026;2023-07-31T14:33:33;3.00;3.00;3.00
69222;PMS7003;56514;51.816;-0.026;2023-07-31T14:36:18;2.00;2.00;1.50
69222;PMS7003;56514;51.816;-0.026;2023-07-31T14:39:02;1.25;1.25;1.25
69222;PMS7003;56514;51.816;-0.026;2023-07-31T14:41:47;3.00;3.00;1.00
69222;PMS7003;56514;51.816;-0.026;2023-07-31T14:44:33;3.00;3.00;2.00
69222;PMS7003;56514;51.816;-0.026;2023-07-31T14:47:18;2.00;2.00;1.50
69222;PMS7003;56514;51.816;-0.026;2023-07-31T14:50:03;4.00;4.00;3.00
69222;PMS7003;56514;51.816;-0.026;2023-07-31T14:52:47;2.50;2.50;1.50
69222;PMS7003;56514;51.816;-0.026;2023-07-31T14:55:33;3.00;3.00;1.75
69222;PMS7003;56514;51.816;-0.026;2023-07-31T14:58:17;1.75;1.75;1.50
69222;PMS7003;56514;51.816;-0.026;2023-07-31T15:01:02;1.00;1.00;0.25
69222;PMS7003;56514;51.816;-0.026;2023-07-31T15:03:47;2.00;2.00;2.00
69222;PMS7003;56514;51.816;-0.026;2023-07-31T15:06:33;1.00;1.00;1.00
69222;PMS7003;56514;51.816;-0.026;2023-07-31T15:09:17;2.25;2.25;1.25
69222;PMS7003;56514;51.816;-0.026;2023-07-31T15:12:02;1.50;1.50;1.00
69222;PMS7003;56514;51.816;-0.026;2023-07-31T15:14:48;2.20;2.20;1.00
69222;PMS7003;56514;51.816;-0.026;2023-07-31T15:17:33;1.00;1.00;1.00
69222;PMS7003;56514;51.816;-0.026;2023-07-31T15:20:18;1.00;1.00;1.00
69222;PMS7003;56514;51.816;-0.026;2023-07-31T15:23:02;1.00;1.00;0.40
69222;PMS7003;56514;51.816;-0.026;2023-07-31T15:25:47;3.00;3.00;2.00
69222;PMS7003;56514;51.816;-0.026;2023-07-31T15:28:32;1.00;1.00;0.40
69222;PMS7003;56514;51.816;-0.026;2023-07-31T15:31:19;0.20;0.20;0.20
69222;PMS7003;56514;51.816;-0.026;2023-07-31T15:34:03;1.00;1.00;1.00
69222;PMS7003;56514;51.816;-0.026;2023-07-31T15:36:48;1.00;1.00;1.00
69222;PMS7003;56514;51.816;-0.026;2023-07-31T15:39:33;2.00;2.00;1.00
69222;PMS7003;56514;51.816;-0.026;2023-07-31T15:42:18;2.00;2.00;1.00
69222;PMS7003;56514;51.816;-0.026;2023-07-31T15:45:02;2.00;2.00;1.00
69222;PMS7003;56514;51.816;-0.026;2023-07-31T15:47:47;2.50;2.50;1.00
69222;PMS7003;56514;51.816;-0.026;2023-07-31T15:50:33;1.40;1.40;1.00
69222;PMS7003;56514;51.816;-0.026;2023-07-31T15:53:18;3.25;2.25;1.50
69222;PMS7003;56514;51.816;-0.026;2023-07-31T15:56:03;1.00;1.00;1.00
69222;PMS7003;56514;51.816;-0.026;2023-07-31T15:58:48;2.00;2.00;1.00
69222;PMS7003;56514;51.816;-0.026;2023-07-31T16:01:33;1.00;1.00;1.00
69222;PMS7003;56514;51.816;-0.026;2023-07-31T16:04:18;2.00;2.00;2.00